createdAt,value
2018-01-23T00:00:13.845Z,3.00
2018-01-23T00:02:42.153Z,3.10
2018-01-23T00:05:10.556Z,3.20
2018-01-23T00:07:38.135Z,3.10
2018-01-23T00:10:06.435Z,3.20
2018-01-23T00:12:33.979Z,3.20
2018-01-23T00:15:01.562Z,3.20
2018-01-23T00:17:29.090Z,3.20
2018-01-23T00:19:57.406Z,3.20
2018-01-23T00:22:25.773Z,3.20
2018-01-23T00:24:53.306Z,3.20
2018-01-23T00:27:20.830Z,3.20
2018-01-23T00:29:49.182Z,3.20
2018-01-23T00:32:16.716Z,3.20
2018-01-23T00:34:44.250Z,3.20
2018-01-23T00:37:12.648Z,3.30
2018-01-23T00:39:40.168Z,3.30
2018-01-23T00:42:07.694Z,3.40
2018-01-23T00:44:36.106Z,3.30
2018-01-23T00:47:03.636Z,3.30
2018-01-23T00:49:31.172Z,3.30
2018-01-23T00:51:58.798Z,3.30
2018-01-23T00:54:27.094Z,3.30
2018-01-23T00:56:54.638Z,3.30
2018-01-23T00:59:22.209Z,3.20
2018-01-23T01:01:49.754Z,3.20
2018-01-23T01:04:17.375Z,3.30
2018-01-23T01:06:45.742Z,3.30
2018-01-23T01:09:13.290Z,3.30
2018-01-23T01:11:40.824Z,3.30
2018-01-23T01:14:08.438Z,3.30
2018-01-23T01:16:35.969Z,3.40
2018-01-23T01:19:03.498Z,3.40
2018-01-23T01:21:31.879Z,3.40
2018-01-23T01:23:59.622Z,3.40
2018-01-23T01:26:27.160Z,3.40
2018-01-23T01:28:54.742Z,3.40
2018-01-23T01:31:22.417Z,3.40
2018-01-23T01:33:49.951Z,3.40
2018-01-23T01:36:17.533Z,3.30
2018-01-23T01:38:45.826Z,3.30
2018-01-23T01:41:14.126Z,3.30
2018-01-23T01:43:41.711Z,3.30
2018-01-23T01:46:09.249Z,3.30
2018-01-23T01:48:49.426Z,3.30
2018-01-23T01:51:17.731Z,3.20
2018-01-23T01:53:45.267Z,3.20
2018-01-23T01:56:12.842Z,3.20
2018-01-23T01:58:41.140Z,3.20
2018-01-23T02:01:09.432Z,3.10
2018-01-23T02:03:37.785Z,3.10
2018-01-23T02:06:05.319Z,3.10
2018-01-23T02:08:32.861Z,3.00
2018-01-23T02:11:01.494Z,2.90
2018-01-23T02:13:29.026Z,2.90
2018-01-23T02:15:57.323Z,2.90
2018-01-23T02:18:25.684Z,3.00
2018-01-23T02:20:53.218Z,2.90
2018-01-23T02:23:20.758Z,3.00
2018-01-23T02:25:48.338Z,3.00
2018-01-23T02:28:15.874Z,3.00
2018-01-23T02:30:43.422Z,3.00
2018-01-23T02:33:11.142Z,3.00
2018-01-23T02:35:38.722Z,3.00
2018-01-23T02:38:06.259Z,3.00
2018-01-23T02:40:33.848Z,3.10
2018-01-23T02:43:02.142Z,3.10
2018-01-23T02:45:29.693Z,3.00
2018-01-23T02:47:57.612Z,3.00
2018-01-23T02:50:25.158Z,3.00
2018-01-23T02:52:53.497Z,3.00
2018-01-23T02:55:21.116Z,2.90
2018-01-23T02:57:49.412Z,3.00
2018-01-23T03:00:17.719Z,3.00
2018-01-23T03:02:45.311Z,2.90
2018-01-23T03:05:12.862Z,2.90
2018-01-23T03:07:40.532Z,2.90
2018-01-23T03:10:08.227Z,2.90
2018-01-23T03:12:35.790Z,2.90
2018-01-23T03:15:03.363Z,3.00
2018-01-23T03:17:31.214Z,3.00
2018-01-23T03:19:59.505Z,3.00
2018-01-23T03:22:27.045Z,3.00
2018-01-23T03:24:54.673Z,2.90
2018-01-23T03:27:22.245Z,2.90
2018-01-23T03:29:49.779Z,2.90
2018-01-23T03:32:17.490Z,2.90
2018-01-23T03:34:45.542Z,2.90
2018-01-23T03:37:13.844Z,2.90
2018-01-23T03:39:41.432Z,2.90
2018-01-23T03:42:08.974Z,2.90
2018-01-23T03:44:37.600Z,2.90
2018-01-23T03:47:05.970Z,2.90
2018-01-23T03:49:33.539Z,2.90
2018-01-23T03:52:01.074Z,3.00
2018-01-23T03:54:28.672Z,3.00
2018-01-23T03:56:56.235Z,3.00
2018-01-23T03:59:24.546Z,3.00
2018-01-23T04:01:52.233Z,3.00
2018-01-23T04:04:19.766Z,3.00
2018-01-23T04:06:48.061Z,3.10
2018-01-23T04:09:16.506Z,3.10
2018-01-23T04:11:44.370Z,3.10
2018-01-23T04:14:11.895Z,3.10
2018-01-23T04:16:40.237Z,3.00
2018-01-23T04:19:07.779Z,3.00
2018-01-23T04:21:35.330Z,3.00
2018-01-23T04:24:03.663Z,3.00
2018-01-23T04:26:31.186Z,3.00
2018-01-23T04:28:59.477Z,3.00
2018-01-23T04:31:27.822Z,3.00
2018-01-23T04:33:55.353Z,3.00
2018-01-23T04:36:22.897Z,3.00
2018-01-23T04:38:50.503Z,3.00
2018-01-23T04:41:18.035Z,3.00
2018-01-23T04:43:45.566Z,3.00
2018-01-23T04:46:13.130Z,3.10
2018-01-23T04:48:40.664Z,3.00
2018-01-23T04:51:08.962Z,3.10
2018-01-23T04:53:37.407Z,3.10
2018-01-23T04:56:05.756Z,3.10
2018-01-23T04:58:33.317Z,3.10
2018-01-23T05:01:01.018Z,3.10
2018-01-23T05:03:28.550Z,3.20
2018-01-23T05:05:56.850Z,3.20
2018-01-23T05:08:24.454Z,3.20
2018-01-23T05:10:52.024Z,3.30
2018-01-23T05:13:19.550Z,3.30
2018-01-23T05:15:47.882Z,3.30
2018-01-23T05:18:15.831Z,3.30
2018-01-23T05:20:43.363Z,3.40
2018-01-23T05:23:10.930Z,3.40
2018-01-23T05:25:38.561Z,3.40
2018-01-23T05:28:06.088Z,3.50
2018-01-23T05:30:33.710Z,3.50
2018-01-23T05:33:01.299Z,3.60
2018-01-23T05:35:28.879Z,3.60
2018-01-23T05:37:56.529Z,3.60
2018-01-23T05:40:24.062Z,3.60
2018-01-23T05:42:52.359Z,3.60
2018-01-23T05:45:20.891Z,3.70
2018-01-23T05:47:48.466Z,3.70
2018-01-23T05:50:15.998Z,3.70
2018-01-23T05:52:43.597Z,3.70
2018-01-23T05:55:11.476Z,3.80
2018-01-23T05:57:39.022Z,3.80
2018-01-23T06:00:06.611Z,3.80
2018-01-23T06:02:34.189Z,3.90
2018-01-23T06:05:01.953Z,3.90
2018-01-23T06:07:29.524Z,3.90
2018-01-23T06:09:57.930Z,4.10
2018-01-23T06:12:25.458Z,4.10
2018-01-23T06:14:53.880Z,4.10
2018-01-23T06:17:21.406Z,4.10
2018-01-23T06:19:49.722Z,4.10
2018-01-23T06:22:18.076Z,4.10
2018-01-23T06:24:46.386Z,4.10
2018-01-23T06:27:14.715Z,4.10
2018-01-23T06:29:42.367Z,4.10
2018-01-23T06:32:09.902Z,4.10
2018-01-23T06:34:37.436Z,4.20
2018-01-23T06:37:05.012Z,4.20
2018-01-23T06:39:32.548Z,4.20
2018-01-23T06:42:00.078Z,4.30
2018-01-23T06:44:27.724Z,4.30
2018-01-23T06:46:55.228Z,4.30
2018-01-23T06:49:22.766Z,4.30
2018-01-23T06:51:50.346Z,4.30
2018-01-23T06:54:17.940Z,4.40
2018-01-23T06:56:45.474Z,4.40
2018-01-23T06:59:13.230Z,4.40
2018-01-23T07:01:41.007Z,4.40
2018-01-23T07:04:08.547Z,4.50
2018-01-23T07:06:36.163Z,4.50
2018-01-23T07:09:03.739Z,4.50
2018-01-23T07:11:31.270Z,4.50
2018-01-23T07:13:59.789Z,4.60
2018-01-23T07:16:27.318Z,4.50
2018-01-23T07:18:54.850Z,4.60
2018-01-23T07:21:22.603Z,4.60
2018-01-23T07:23:50.791Z,4.70
2018-01-23T07:26:18.317Z,4.70
2018-01-23T07:28:45.890Z,4.80
2018-01-23T07:31:13.414Z,4.90
2018-01-23T07:33:40.959Z,5.00
2018-01-23T07:38:42.518Z,5.20
2018-01-23T07:41:10.090Z,5.20
2018-01-23T07:43:37.751Z,5.20
2018-01-23T07:46:05.727Z,5.30
2018-01-23T07:48:33.634Z,5.20
2018-01-23T07:51:01.162Z,5.30
2018-01-23T07:53:28.698Z,5.30
2018-01-23T07:55:56.391Z,5.30
2018-01-23T07:58:23.970Z,5.20
2018-01-23T08:00:52.647Z,5.20
2018-01-23T08:03:20.218Z,5.30
2018-01-23T08:05:47.754Z,5.30
2018-01-23T08:08:15.278Z,5.30
2018-01-23T08:10:42.846Z,5.30
2018-01-23T08:13:10.431Z,5.30
2018-01-23T08:15:37.958Z,5.40
2018-01-23T08:18:06.294Z,5.50
2018-01-23T08:20:33.827Z,5.50
2018-01-23T08:23:01.426Z,5.50
2018-01-23T08:25:29.002Z,5.60
2018-01-23T08:27:56.541Z,5.60
2018-01-23T08:30:24.083Z,5.70
2018-01-23T08:32:51.668Z,5.70
2018-01-23T08:35:20.067Z,5.70
2018-01-23T08:37:49.298Z,5.70
2018-01-23T08:40:16.880Z,5.70
2018-01-23T08:42:44.418Z,5.70
2018-01-23T08:45:12.842Z,5.70
2018-01-23T08:47:40.414Z,5.70
2018-01-23T08:50:08.216Z,5.70
2018-01-23T08:52:35.753Z,5.70
2018-01-23T08:55:03.338Z,5.80
2018-01-23T08:57:30.942Z,5.80
2018-01-23T08:59:58.471Z,5.80
2018-01-23T09:02:26.062Z,5.90
2018-01-23T09:04:53.590Z,5.90
2018-01-23T09:07:21.911Z,5.90
2018-01-23T09:09:49.498Z,6.00
2018-01-23T09:12:17.039Z,6.00
2018-01-23T09:14:45.444Z,6.00
2018-01-23T09:17:13.026Z,6.00
2018-01-23T09:19:40.771Z,6.00
2018-01-23T09:22:08.297Z,6.10
2018-01-23T09:24:35.899Z,6.20
2018-01-23T09:27:04.214Z,6.30
2018-01-23T09:29:31.746Z,6.30
2018-01-23T09:32:00.267Z,6.40
2018-01-23T09:34:27.799Z,6.40
2018-01-23T09:36:55.362Z,6.40
2018-01-23T09:39:22.963Z,6.40
2018-01-23T09:41:51.261Z,6.50
2018-01-23T09:44:18.860Z,6.50
2018-01-23T09:46:46.446Z,6.50
2018-01-23T09:49:14.036Z,6.50
2018-01-23T09:51:41.575Z,6.50
2018-01-23T09:54:09.330Z,6.50
2018-01-23T09:56:36.890Z,6.50
2018-01-23T09:59:04.427Z,6.60
2018-01-23T10:01:32.874Z,6.70
2018-01-23T10:04:00.416Z,6.70
2018-01-23T10:06:28.714Z,6.70
2018-01-23T10:08:57.206Z,6.70
2018-01-23T10:11:25.153Z,6.70
2018-01-23T10:13:52.706Z,6.70
2018-01-23T10:16:20.360Z,6.60
2018-01-23T10:18:47.920Z,6.70
2018-01-23T10:21:15.891Z,6.70
2018-01-23T10:23:43.474Z,6.80
2018-01-23T10:26:11.048Z,6.80
2018-01-23T10:28:38.620Z,6.80
2018-01-23T10:31:06.310Z,6.70
2018-01-23T10:33:33.883Z,6.70
2018-01-23T10:36:01.551Z,6.70
2018-01-23T10:38:29.404Z,6.70
2018-01-23T10:40:57.275Z,6.70
2018-01-23T10:43:24.854Z,6.70
2018-01-23T10:45:52.453Z,6.80
2018-01-23T10:48:20.199Z,6.80
2018-01-23T10:50:49.064Z,6.80
2018-01-23T10:53:16.698Z,6.80
2018-01-23T10:55:44.236Z,6.80
2018-01-23T10:58:11.790Z,6.90
2018-01-23T11:00:45.940Z,7.00
2018-01-23T11:03:13.478Z,6.90
2018-01-23T11:05:41.778Z,7.00
2018-01-23T11:08:10.112Z,7.00
2018-01-23T11:10:37.772Z,7.00
2018-01-23T11:13:05.733Z,7.00
2018-01-23T11:15:33.787Z,7.00
2018-01-23T11:18:01.481Z,7.00
2018-01-23T11:20:29.183Z,6.90
2018-01-23T11:22:57.162Z,7.00
2018-01-23T11:25:24.746Z,6.90
2018-01-23T11:27:52.581Z,7.00
2018-01-23T11:30:21.088Z,7.00
2018-01-23T11:32:48.651Z,7.00
2018-01-23T11:35:16.981Z,7.10
2018-01-23T11:37:44.562Z,7.10
2018-01-23T11:40:12.678Z,7.20
2018-01-23T11:42:40.543Z,7.20
2018-01-23T11:45:08.180Z,7.20
2018-01-23T11:47:35.755Z,7.20
2018-01-23T11:50:03.286Z,7.30
2018-01-23T11:52:32.520Z,7.30
2018-01-23T11:55:00.296Z,7.30
2018-01-23T11:57:28.002Z,7.40
2018-01-23T11:59:55.717Z,7.50
2018-01-23T12:02:24.161Z,7.70
2018-01-23T12:04:51.932Z,7.70
2018-01-23T12:07:19.694Z,7.80
2018-01-23T12:09:47.366Z,7.90
2018-01-23T12:12:14.898Z,7.90
2018-01-23T12:14:42.534Z,7.90
2018-01-23T12:17:10.903Z,8.10
2018-01-23T12:19:38.595Z,8.00
2018-01-23T12:22:06.210Z,8.10
2018-01-23T12:24:33.738Z,8.20
2018-01-23T12:27:01.489Z,8.20
2018-01-23T12:29:29.479Z,8.20
2018-01-23T12:31:57.452Z,8.30
2018-01-23T12:34:25.022Z,8.30
2018-01-23T12:36:52.698Z,8.40
2018-01-23T12:39:20.226Z,8.40
2018-01-23T12:41:47.823Z,8.50
2018-01-23T12:44:15.515Z,8.50
2018-01-23T12:46:43.040Z,8.40
2018-01-23T12:49:10.681Z,8.40
2018-01-23T12:51:38.344Z,8.30
2018-01-23T12:54:05.934Z,8.30
2018-01-23T12:56:33.472Z,8.30
2018-01-23T12:59:01.146Z,8.20
2018-01-23T13:01:28.734Z,8.20
2018-01-23T13:03:56.266Z,8.20
2018-01-23T13:06:24.627Z,8.10
2018-01-23T13:08:52.170Z,8.10
2018-01-23T13:11:19.739Z,8.10
2018-01-23T13:13:47.314Z,8.10
2018-01-23T13:16:14.894Z,8.10
2018-01-23T13:18:42.453Z,8.10
2018-01-23T13:21:10.126Z,8.10
2018-01-23T13:23:37.662Z,8.00
2018-01-23T13:26:05.966Z,7.90
2018-01-23T13:28:33.573Z,7.90
2018-01-23T13:31:01.130Z,7.90
2018-01-23T13:33:28.654Z,7.90
2018-01-23T13:35:57.005Z,7.80
2018-01-23T13:38:24.638Z,7.80
2018-01-23T13:40:52.202Z,7.80
2018-01-23T13:43:20.580Z,7.80
2018-01-23T13:45:48.876Z,7.80
2018-01-23T13:48:17.169Z,7.80
2018-01-23T13:50:44.842Z,7.80
2018-01-23T13:53:12.377Z,7.80
2018-01-23T13:55:39.898Z,7.80
2018-01-23T13:58:07.486Z,7.80
2018-01-23T14:00:35.031Z,7.80
2018-01-23T14:03:02.566Z,7.80
2018-01-23T14:05:30.164Z,7.80
2018-01-23T14:07:58.460Z,7.80
2018-01-23T14:10:26.001Z,7.80
2018-01-23T14:12:53.582Z,7.80
2018-01-23T14:15:21.890Z,7.80
2018-01-23T14:17:50.218Z,7.80
2018-01-23T14:20:17.786Z,7.80
2018-01-23T14:22:45.315Z,7.80
2018-01-23T14:25:12.914Z,7.80
2018-01-23T14:27:40.593Z,7.80
2018-01-23T14:30:08.126Z,7.80
2018-01-23T14:32:36.427Z,7.70
2018-01-23T14:35:04.002Z,7.70
2018-01-23T14:37:31.535Z,7.70
2018-01-23T14:39:59.085Z,7.70
2018-01-23T14:42:26.656Z,7.70
2018-01-23T14:44:54.202Z,7.70
2018-01-23T14:47:21.746Z,7.70
2018-01-23T14:49:50.165Z,7.70
2018-01-23T14:52:17.707Z,7.70
2018-01-23T14:54:46.023Z,8.00
2018-01-23T14:57:13.590Z,8.00
2018-01-23T14:59:41.127Z,8.10
2018-01-23T15:02:09.431Z,8.30
2018-01-23T15:04:37.768Z,8.30
2018-01-23T15:07:05.299Z,8.30
2018-01-23T15:09:32.890Z,8.20
2018-01-23T15:12:00.630Z,8.10
2018-01-23T15:14:28.190Z,8.00
2018-01-23T15:16:56.496Z,7.80
2018-01-23T15:19:24.843Z,7.80
2018-01-23T15:21:52.387Z,7.80
2018-01-23T15:24:19.918Z,7.70
2018-01-23T15:26:48.283Z,7.70
2018-01-23T15:29:16.607Z,7.70
2018-01-23T15:31:44.144Z,7.60
2018-01-23T15:34:11.720Z,7.60
2018-01-23T15:36:39.355Z,7.60
2018-01-23T15:39:06.941Z,7.60
2018-01-23T15:41:34.521Z,7.50
2018-01-23T15:44:02.046Z,7.50
2018-01-23T15:46:29.583Z,7.50
2018-01-23T15:48:57.155Z,7.50
2018-01-23T15:51:24.686Z,7.50
2018-01-23T15:53:52.214Z,7.50
2018-01-23T15:56:19.802Z,7.50
2018-01-23T15:58:47.330Z,7.50
2018-01-23T16:01:16.358Z,7.50
2018-01-23T16:03:44.700Z,7.50
2018-01-23T16:06:12.256Z,7.50
2018-01-23T16:08:39.788Z,7.50
2018-01-23T16:11:08.130Z,7.50
2018-01-23T16:13:35.688Z,7.40
2018-01-23T16:16:03.259Z,7.50
2018-01-23T16:18:30.926Z,7.50
2018-01-23T16:20:58.462Z,7.40
2018-01-23T16:23:26.791Z,7.40
2018-01-23T16:25:54.358Z,7.50
2018-01-23T16:28:21.922Z,7.40
2018-01-23T16:30:50.385Z,7.40
2018-01-23T16:33:18.741Z,7.40
2018-01-23T16:35:46.283Z,7.40
2018-01-23T16:38:13.850Z,7.40
2018-01-23T16:40:41.535Z,7.40
2018-01-23T16:43:09.075Z,7.40
2018-01-23T16:45:36.613Z,7.40
2018-01-23T16:48:04.204Z,7.40
2018-01-23T16:50:32.617Z,7.40
2018-01-23T16:53:00.202Z,7.40
2018-01-23T16:55:27.879Z,7.40
2018-01-23T16:57:55.488Z,7.40
2018-01-23T17:00:23.850Z,7.40
2018-01-23T17:02:51.428Z,7.40
2018-01-23T17:05:19.071Z,7.40
2018-01-23T17:07:46.599Z,7.30
2018-01-23T17:10:14.339Z,7.40
2018-01-23T17:12:41.866Z,7.40
2018-01-23T17:15:10.165Z,7.40
2018-01-23T17:17:37.743Z,7.30
2018-01-23T17:20:05.270Z,7.40
2018-01-23T17:22:32.900Z,7.40
2018-01-23T17:25:00.474Z,7.40
2018-01-23T17:27:28.581Z,7.40
2018-01-23T17:29:56.218Z,7.30
2018-01-23T17:32:23.911Z,7.30
2018-01-23T17:34:51.442Z,7.30
2018-01-23T17:37:19.750Z,7.20
2018-01-23T17:39:47.320Z,7.20
2018-01-23T17:42:15.639Z,7.20
2018-01-23T17:44:43.184Z,7.20
2018-01-23T17:47:10.968Z,7.10
2018-01-23T17:49:38.883Z,7.10
2018-01-23T17:52:07.384Z,7.10
2018-01-23T17:54:35.540Z,7.10
2018-01-23T17:57:03.084Z,7.10
2018-01-23T17:59:30.622Z,7.00
2018-01-23T18:01:59.002Z,7.00
2018-01-23T18:04:26.638Z,7.00
2018-01-23T18:06:54.162Z,7.00
2018-01-23T18:09:22.632Z,7.00
2018-01-23T18:11:50.956Z,7.00
2018-01-23T18:14:19.255Z,7.00
2018-01-23T18:16:46.831Z,7.00
2018-01-23T18:19:14.370Z,7.00
2018-01-23T18:21:42.665Z,7.00
2018-01-23T18:24:11.294Z,7.00
2018-01-23T18:26:39.435Z,6.90
2018-01-23T18:29:06.962Z,7.00
2018-01-23T18:31:34.534Z,7.00
2018-01-23T18:34:02.667Z,6.90
2018-01-23T18:36:30.974Z,6.90
2018-01-23T18:38:58.566Z,6.90
2018-01-23T18:41:26.158Z,6.90
2018-01-23T18:43:53.703Z,6.90
2018-01-23T18:46:21.293Z,6.90
2018-01-23T18:48:48.831Z,6.90
2018-01-23T18:51:17.170Z,6.90
2018-01-23T18:53:44.746Z,6.90
2018-01-23T18:56:12.285Z,6.90
2018-01-23T18:58:39.822Z,6.90
2018-01-23T19:01:08.170Z,6.90
2018-01-23T19:03:35.959Z,6.90
2018-01-23T19:06:03.559Z,6.80
2018-01-23T19:08:31.894Z,6.80
2018-01-23T19:10:59.434Z,6.80
2018-01-23T19:13:26.997Z,6.80
2018-01-23T19:15:55.628Z,6.70
2018-01-23T19:18:23.174Z,6.70
2018-01-23T19:20:51.485Z,6.70
2018-01-23T19:23:19.081Z,6.70
2018-01-23T19:25:46.783Z,6.70
2018-01-23T19:28:15.166Z,6.80
2018-01-23T19:30:43.947Z,6.80
2018-01-23T19:33:11.509Z,6.70
2018-01-23T19:35:39.071Z,6.80
2018-01-23T19:38:06.857Z,6.80
2018-01-23T19:40:34.556Z,6.80
2018-01-23T19:43:02.104Z,6.80
2018-01-23T19:45:29.715Z,6.90
2018-01-23T19:47:58.237Z,6.90
2018-01-23T19:50:25.822Z,6.90
2018-01-23T19:52:53.608Z,6.90
2018-01-23T19:55:21.187Z,6.90
2018-01-23T19:57:48.829Z,6.90
2018-01-23T20:00:16.422Z,6.90
2018-01-23T20:02:43.974Z,6.90
2018-01-23T20:05:11.515Z,6.90
2018-01-23T20:07:39.869Z,6.90
2018-01-23T20:10:07.562Z,6.80
2018-01-23T20:12:35.311Z,6.80
2018-01-23T20:15:02.958Z,6.80
2018-01-23T20:17:30.629Z,6.80
2018-01-23T20:19:58.215Z,6.80
2018-01-23T20:22:25.976Z,6.80
2018-01-23T20:24:53.606Z,6.80
2018-01-23T20:27:21.159Z,6.80
2018-01-23T20:29:49.208Z,6.80
2018-01-23T20:32:16.759Z,6.70
2018-01-23T20:34:45.125Z,6.70
2018-01-23T20:37:12.711Z,6.70
2018-01-23T20:39:41.090Z,6.70
2018-01-23T20:42:08.693Z,6.70
2018-01-23T20:44:36.294Z,6.70
2018-01-23T20:47:03.882Z,6.70
2018-01-23T20:49:31.531Z,6.70
2018-01-23T20:51:59.104Z,6.70
2018-01-23T20:54:26.678Z,6.80
2018-01-23T20:56:54.372Z,6.80
2018-01-23T20:59:22.209Z,6.80
2018-01-23T21:01:49.748Z,6.80
2018-01-23T21:04:17.283Z,6.80
2018-01-23T21:06:45.041Z,6.80
2018-01-23T21:09:12.570Z,6.80
2018-01-23T21:11:41.363Z,6.80
2018-01-23T21:14:09.807Z,6.90
2018-01-23T21:16:37.381Z,6.90
2018-01-23T21:19:07.478Z,6.90
2018-01-23T21:21:35.312Z,6.90
2018-01-23T21:24:02.886Z,6.90
2018-01-23T21:26:31.134Z,6.90
2018-01-23T21:28:58.706Z,6.90
2018-01-23T21:31:26.227Z,6.90
2018-01-23T21:33:53.872Z,6.90
2018-01-23T21:36:21.638Z,6.90
2018-01-23T21:38:49.215Z,6.90
2018-01-23T21:41:16.780Z,6.90
2018-01-23T21:43:44.366Z,6.90
2018-01-23T21:46:11.950Z,6.90
2018-01-23T21:48:39.486Z,6.90
2018-01-23T21:51:07.067Z,6.90
2018-01-23T21:53:34.607Z,6.90
2018-01-23T21:56:02.908Z,6.90
2018-01-23T21:58:30.489Z,6.90
2018-01-23T22:00:58.032Z,6.90
2018-01-23T22:03:26.330Z,6.90
2018-01-23T22:05:53.922Z,6.90
2018-01-23T22:08:21.585Z,6.90
2018-01-23T22:10:49.126Z,6.90
2018-01-23T22:13:17.475Z,6.90
2018-01-23T22:15:45.030Z,6.90
2018-01-23T22:18:12.562Z,6.90
2018-01-23T22:20:41.081Z,7.00
2018-01-23T22:23:08.607Z,6.90
2018-01-23T22:25:36.137Z,6.90
2018-01-23T22:28:03.897Z,7.00
2018-01-23T22:30:31.506Z,7.00
2018-01-23T22:32:59.078Z,7.00
2018-01-23T22:35:26.656Z,7.00
2018-01-23T22:37:54.197Z,7.00
2018-01-23T22:40:22.223Z,7.00
2018-01-23T22:42:49.850Z,7.10
2018-01-23T22:45:17.402Z,7.10
2018-01-23T22:47:44.930Z,7.10
2018-01-23T22:50:12.763Z,7.10
2018-01-23T22:52:40.296Z,7.10
2018-01-23T22:55:08.604Z,7.20
2018-01-23T22:57:36.194Z,7.20
2018-01-23T23:00:06.520Z,7.20
2018-01-23T23:02:34.074Z,7.30
2018-01-23T23:05:02.416Z,7.30
2018-01-23T23:07:29.962Z,7.30
2018-01-23T23:09:57.515Z,7.30
2018-01-23T23:12:25.091Z,7.30
2018-01-23T23:14:52.623Z,7.30
2018-01-23T23:17:20.156Z,7.40
2018-01-23T23:19:47.731Z,7.50
2018-01-23T23:22:15.260Z,7.50
2018-01-23T23:24:43.590Z,7.50
2018-01-23T23:27:11.165Z,7.50
2018-01-23T23:29:38.697Z,7.60
2018-01-23T23:32:06.438Z,7.60
2018-01-23T23:34:34.021Z,7.60
2018-01-23T23:37:01.563Z,7.60
2018-01-23T23:39:29.099Z,7.70
2018-01-23T23:41:56.683Z,7.70
2018-01-23T23:44:24.226Z,7.70
2018-01-23T23:46:52.535Z,7.70
2018-01-23T23:49:20.203Z,7.80
2018-01-23T23:51:47.726Z,7.80
2018-01-23T23:54:15.372Z,7.80
2018-01-23T23:56:42.934Z,7.80
2018-01-23T23:59:10.503Z,7.80
